createdAt,value
2018-08-04T00:03:22.545Z,23.50
2018-08-04T00:15:33.266Z,23.40
2018-08-04T00:21:38.850Z,23.20
2018-08-04T00:27:44.443Z,23.10
2018-08-04T00:33:50.045Z,23.00
2018-08-04T00:39:55.682Z,22.90
2018-08-04T00:46:01.312Z,22.80
2018-08-04T00:52:06.945Z,22.70
2018-08-04T00:58:12.514Z,22.50
2018-08-04T01:04:18.154Z,22.50
2018-08-04T01:10:23.753Z,22.50
2018-08-04T01:16:29.340Z,22.50
2018-08-04T01:22:36.675Z,22.40
2018-08-04T01:28:42.300Z,22.30
2018-08-04T01:34:48.486Z,22.10
2018-08-04T01:40:54.067Z,22.10
2018-08-04T01:46:59.623Z,22.00
2018-08-04T01:53:05.302Z,22.00
2018-08-04T01:59:10.891Z,21.80
2018-08-04T02:05:16.458Z,21.70
2018-08-04T02:11:22.090Z,21.50
2018-08-04T02:17:27.661Z,21.50
2018-08-04T02:29:38.448Z,21.40
2018-08-04T02:35:44.011Z,21.40
2018-08-04T02:41:49.608Z,21.30
2018-08-04T02:47:55.169Z,21.30
2018-08-04T02:54:00.719Z,21.20
2018-08-04T03:00:06.886Z,21.10
2018-08-04T03:06:12.538Z,21.10
2018-08-04T03:12:18.131Z,21.10
2018-08-04T03:18:23.734Z,20.90
2018-08-04T03:24:29.339Z,20.80
2018-08-04T03:30:34.894Z,20.50
2018-08-04T03:36:40.541Z,20.60
2018-08-04T03:42:46.196Z,20.60
2018-08-04T03:48:51.814Z,20.60
2018-08-04T03:54:57.427Z,20.50
2018-08-04T04:01:03.059Z,20.40
2018-08-04T04:07:08.729Z,20.40
2018-08-04T04:13:14.330Z,20.30
2018-08-04T04:19:19.943Z,20.30
2018-08-04T04:25:25.536Z,20.30
2018-08-04T04:31:31.106Z,20.30
2018-08-04T04:37:36.702Z,20.20
2018-08-04T04:43:42.310Z,20.30
2018-08-04T04:49:47.873Z,20.30
2018-08-04T04:55:53.431Z,20.50
2018-08-04T05:01:59.041Z,20.60
2018-08-04T05:08:04.684Z,20.80
2018-08-04T05:14:10.246Z,21.10
2018-08-04T05:20:15.865Z,21.20
2018-08-04T05:32:26.572Z,21.40
2018-08-04T05:38:32.133Z,21.60
2018-08-04T05:44:37.758Z,21.70
2018-08-04T05:50:43.316Z,21.90
2018-08-04T05:56:48.897Z,22.10
2018-08-04T06:02:54.486Z,22.30
2018-08-04T06:09:00.041Z,22.50
2018-08-04T06:15:05.921Z,22.90
2018-08-04T06:21:12.427Z,23.10
2018-08-04T06:27:18.016Z,23.50
2018-08-04T06:33:24.145Z,23.60
2018-08-04T06:39:29.757Z,23.80
2018-08-04T06:45:35.315Z,24.00
2018-08-04T06:51:40.901Z,24.40
2018-08-04T06:57:46.531Z,24.90
2018-08-04T07:03:52.060Z,25.40
2018-08-04T07:09:57.622Z,25.70
2018-08-04T07:16:03.174Z,25.70
2018-08-04T07:22:08.781Z,26.30
2018-08-04T07:28:14.738Z,26.70
2018-08-04T07:34:20.404Z,27.00
2018-08-04T07:40:25.954Z,27.10
2018-08-04T07:46:31.491Z,27.30
2018-08-04T07:52:38.078Z,27.10
2018-08-04T07:58:43.986Z,27.00
2018-08-04T08:04:49.906Z,27.10
2018-08-04T08:10:56.218Z,27.30
2018-08-04T08:23:07.632Z,27.60
2018-08-04T08:29:13.567Z,27.50
2018-08-04T08:35:19.545Z,27.50
2018-08-04T08:41:25.498Z,27.80
2018-08-04T08:47:31.414Z,27.90
2018-08-04T08:53:37.421Z,27.60
2018-08-04T08:59:42.910Z,27.60
2018-08-04T09:05:48.590Z,28.00
2018-08-04T09:11:54.222Z,28.80
2018-08-04T09:17:59.883Z,28.90
2018-08-04T09:24:05.579Z,29.40
2018-08-04T09:30:13.533Z,29.90
2018-08-04T09:36:19.201Z,30.00
2018-08-04T09:42:24.849Z,30.30
2018-08-04T09:48:30.749Z,30.30
2018-08-04T09:54:36.713Z,30.30
2018-08-04T10:00:47.749Z,30.10
2018-08-04T10:06:53.702Z,31.00
2018-08-04T10:12:59.455Z,30.70
2018-08-04T10:19:05.143Z,30.70
2018-08-04T10:25:10.759Z,30.80
2018-08-04T10:31:16.714Z,30.80
2018-08-04T10:37:22.775Z,31.30
2018-08-04T10:43:28.699Z,32.40
2018-08-04T10:49:35.358Z,33.30
2018-08-04T10:55:41.230Z,33.90
2018-08-04T11:01:47.144Z,34.20
2018-08-04T11:07:53.121Z,34.40
2018-08-04T11:13:59.050Z,35.10
2018-08-04T11:20:05.460Z,35.10
2018-08-04T11:26:11.437Z,34.80
2018-08-04T11:32:17.356Z,34.60
2018-08-04T11:38:23.264Z,35.20
2018-08-04T11:44:29.336Z,35.30
2018-08-04T11:50:35.240Z,35.40
2018-08-04T11:56:41.218Z,35.60
2018-08-04T12:02:47.134Z,36.00
2018-08-04T12:08:53.032Z,36.20
2018-08-04T12:14:58.997Z,36.40
2018-08-04T12:21:05.006Z,37.10
2018-08-04T12:27:10.930Z,37.00
2018-08-04T12:33:16.786Z,36.20
2018-08-04T12:39:22.754Z,36.50
2018-08-04T12:45:28.811Z,36.90
2018-08-04T12:51:34.646Z,37.30
2018-08-04T12:57:40.600Z,38.50
2018-08-04T13:03:46.559Z,38.80
2018-08-04T13:09:52.536Z,40.00
2018-08-04T13:15:58.577Z,39.50
2018-08-04T13:22:04.562Z,40.00
2018-08-04T13:28:10.535Z,41.20
2018-08-04T13:34:16.471Z,40.60
2018-08-04T13:40:22.400Z,41.00
2018-08-04T13:46:28.385Z,42.10
2018-08-04T13:52:34.571Z,42.40
2018-08-04T13:58:40.529Z,41.80
2018-08-04T14:04:46.427Z,40.00
2018-08-04T14:10:52.410Z,40.10
2018-08-04T14:16:58.332Z,40.40
2018-08-04T14:23:04.331Z,40.20
2018-08-04T14:29:10.295Z,40.10
2018-08-04T14:35:16.193Z,40.20
2018-08-04T14:41:22.152Z,39.60
2018-08-04T14:47:28.088Z,39.10
2018-08-04T14:53:34.089Z,39.80
2018-08-04T14:59:40.105Z,40.50
2018-08-04T15:05:46.277Z,40.60
2018-08-04T15:11:52.272Z,41.00
2018-08-04T15:17:58.280Z,41.00
2018-08-04T15:24:04.199Z,41.90
2018-08-04T15:30:10.237Z,42.90
2018-08-04T15:36:16.153Z,42.10
2018-08-04T15:42:22.111Z,40.90
2018-08-04T15:48:28.015Z,40.50
2018-08-04T15:54:33.922Z,40.90
2018-08-04T16:00:39.719Z,40.60
2018-08-04T16:06:45.348Z,40.60
2018-08-04T16:12:50.949Z,40.20
2018-08-04T16:18:56.947Z,40.40
2018-08-04T16:25:03.049Z,41.30
2018-08-04T16:31:09.097Z,40.50
2018-08-04T16:37:15.129Z,40.80
2018-08-04T16:43:21.100Z,41.10
2018-08-04T16:49:27.122Z,41.10
2018-08-04T16:55:33.009Z,40.20
2018-08-04T17:01:38.942Z,39.00
2018-08-04T17:07:44.555Z,38.10
2018-08-04T17:13:50.709Z,37.10
2018-08-04T17:19:56.766Z,37.30
2018-08-04T17:26:02.780Z,37.20
2018-08-04T17:32:08.825Z,37.40
2018-08-04T17:38:14.714Z,37.70
2018-08-04T17:44:20.772Z,37.80
2018-08-04T17:50:26.898Z,37.60
2018-08-04T17:56:32.815Z,36.90
2018-08-04T18:02:38.602Z,36.10
2018-08-04T18:08:44.194Z,35.80
2018-08-04T18:14:49.749Z,35.30
2018-08-04T18:20:55.286Z,34.80
2018-08-04T18:27:00.874Z,33.70
2018-08-04T18:33:06.713Z,32.50
2018-08-04T18:39:12.292Z,32.30
2018-08-04T18:45:24.193Z,31.30
2018-08-04T18:51:29.797Z,30.50
2018-08-04T18:57:35.369Z,29.80
2018-08-04T19:03:41.252Z,29.10
2018-08-04T19:09:46.803Z,28.70
2018-08-04T19:15:52.444Z,28.40
2018-08-04T19:21:58.057Z,28.10
2018-08-04T19:28:03.698Z,27.80
2018-08-04T19:34:09.201Z,27.60
2018-08-04T19:40:14.769Z,27.30
2018-08-04T19:46:20.350Z,27.20
2018-08-04T19:52:25.898Z,27.10
2018-08-04T19:58:31.441Z,27.00
2018-08-04T20:04:36.986Z,26.90
2018-08-04T20:10:42.529Z,26.70
2018-08-04T20:16:48.087Z,26.60
2018-08-04T20:22:53.669Z,26.50
2018-08-04T20:28:59.202Z,26.30
2018-08-04T20:35:05.359Z,26.30
2018-08-04T20:41:10.910Z,26.20
2018-08-04T20:47:16.535Z,26.00
2018-08-04T20:53:22.074Z,25.90
2018-08-04T20:59:27.701Z,25.80
2018-08-04T21:05:33.286Z,25.70
2018-08-04T21:11:49.040Z,25.60
2018-08-04T21:17:54.623Z,25.40
2018-08-04T21:24:00.196Z,25.30
2018-08-04T21:30:07.404Z,25.00
2018-08-04T21:36:12.965Z,24.90
2018-08-04T21:42:18.752Z,24.70
2018-08-04T21:48:28.646Z,24.60
2018-08-04T21:54:34.270Z,24.30
2018-08-04T22:00:45.027Z,24.20
2018-08-04T22:08:13.690Z,24.00
2018-08-04T22:14:19.300Z,23.80
2018-08-04T22:20:25.545Z,23.70
2018-08-04T22:26:31.161Z,23.60
2018-08-04T22:32:36.852Z,23.50
2018-08-04T22:38:42.426Z,23.40
2018-08-04T22:45:04.907Z,23.40
2018-08-04T22:51:10.480Z,23.30
2018-08-04T22:57:16.073Z,23.10
2018-08-04T23:03:21.663Z,23.10
2018-08-04T23:09:27.265Z,23.00
2018-08-04T23:15:32.875Z,22.90
2018-08-04T23:21:38.457Z,22.90
2018-08-04T23:27:44.026Z,22.80
2018-08-04T23:33:49.569Z,22.70
2018-08-04T23:39:55.177Z,22.70
2018-08-04T23:46:00.757Z,22.60
2018-08-04T23:52:06.378Z,22.60
2018-08-04T23:58:11.962Z,22.50
